sensor_id;sensor_type;location;lat;lon;timestamp;temperature;humidity
52575;DHT22;38468;48.114;-1.684;2023-02-02T00:00:34;9.20;66.70
52575;DHT22;38468;48.114;-1.684;2023-02-02T00:02:37;9.20;66.60
52575;DHT22;38468;48.114;-1.684;2023-02-02T00:04:41;9.20;66.70
52575;DHT22;38468;48.114;-1.684;2023-02-02T00:06:43;9.10;66.80
52575;DHT22;38468;48.114;-1.684;2023-02-02T00:08:46;9.00;66.60
52575;DHT22;38468;48.114;-1.684;2023-02-02T00:10:50;9.10;66.70
52575;DHT22;38468;48.114;-1.684;2023-02-02T00:12:51;9.10;66.80
52575;DHT22;38468;48.114;-1.684;2023-02-02T00:14:53;9.10;66.50
52575;DHT22;38468;48.114;-1.684;2023-02-02T00:16:55;9.10;66.60
52575;DHT22;38468;48.114;-1.684;2023-02-02T00:18:59;9.10;66.60
52575;DHT22;38468;48.114;-1.684;2023-02-02T00:21:00;9.10;66.50
52575;DHT22;38468;48.114;-1.684;2023-02-02T00:23:01;9.10;66.50
52575;DHT22;38468;48.114;-1.684;2023-02-02T00:25:04;9.10;66.40
52575;DHT22;38468;48.114;-1.684;2023-02-02T00:27:04;9.00;66.50
52575;DHT22;38468;48.114;-1.684;2023-02-02T00:29:06;9.10;66.50
52575;DHT22;38468;48.114;-1.684;2023-02-02T00:31:07;9.00;66.40
52575;DHT22;38468;48.114;-1.684;2023-02-02T00:33:08;9.00;66.40
52575;DHT22;38468;48.114;-1.684;2023-02-02T00:35:09;9.00;66.50
52575;DHT22;38468;48.114;-1.684;2023-02-02T00:37:10;9.00;66.50
52575;DHT22;38468;48.114;-1.684;2023-02-02T00:39:16;9.00;66.40
52575;DHT22;38468;48.114;-1.684;2023-02-02T00:41:18;9.00;66.30
52575;DHT22;38468;48.114;-1.684;2023-02-02T00:43:19;8.90;66.10
52575;DHT22;38468;48.114;-1.684;2023-02-02T00:45:20;8.90;65.90
52575;DHT22;38468;48.114;-1.684;2023-02-02T00:47:22;8.90;66.20
52575;DHT22;38468;48.114;-1.684;2023-02-02T00:49:26;8.90;66.40
52575;DHT22;38468;48.114;-1.684;2023-02-02T00:51:27;8.90;66.40
52575;DHT22;38468;48.114;-1.684;2023-02-02T00:53:28;9.00;66.40
52575;DHT22;38468;48.114;-1.684;2023-02-02T00:55:29;9.00;66.10
52575;DHT22;38468;48.114;-1.684;2023-02-02T00:57:29;9.00;66.00
52575;DHT22;38468;48.114;-1.684;2023-02-02T00:59:30;9.00;66.00
52575;DHT22;38468;48.114;-1.684;2023-02-02T01:01:31;9.00;66.10
52575;DHT22;38468;48.114;-1.684;2023-02-02T01:03:32;9.00;66.30
52575;DHT22;38468;48.114;-1.684;2023-02-02T01:05:33;9.00;65.90
52575;DHT22;38468;48.114;-1.684;2023-02-02T01:07:34;9.00;66.10
52575;DHT22;38468;48.114;-1.684;2023-02-02T01:09:34;8.90;65.60
52575;DHT22;38468;48.114;-1.684;2023-02-02T01:11:35;8.90;65.90
52575;DHT22;38468;48.114;-1.684;2023-02-02T01:13:36;8.90;66.00
52575;DHT22;38468;48.114;-1.684;2023-02-02T01:15:37;9.00;66.00
52575;DHT22;38468;48.114;-1.684;2023-02-02T01:17:38;9.00;66.10
52575;DHT22;38468;48.114;-1.684;2023-02-02T01:19:38;9.00;66.00
52575;DHT22;38468;48.114;-1.684;2023-02-02T01:21:39;9.00;66.00
52575;DHT22;38468;48.114;-1.684;2023-02-02T01:23:40;9.00;66.00
52575;DHT22;38468;48.114;-1.684;2023-02-02T01:25:40;9.00;65.80
52575;DHT22;38468;48.114;-1.684;2023-02-02T01:27:41;9.00;65.80
52575;DHT22;38468;48.114;-1.684;2023-02-02T01:29:41;9.10;65.80
52575;DHT22;38468;48.114;-1.684;2023-02-02T01:31:42;9.10;65.70
52575;DHT22;38468;48.114;-1.684;2023-02-02T01:33:44;9.00;65.70
52575;DHT22;38468;48.114;-1.684;2023-02-02T01:35:50;9.00;65.70
52575;DHT22;38468;48.114;-1.684;2023-02-02T01:37:51;9.00;65.60
52575;DHT22;38468;48.114;-1.684;2023-02-02T01:39:51;9.00;65.50
52575;DHT22;38468;48.114;-1.684;2023-02-02T01:41:52;9.00;65.90
52575;DHT22;38468;48.114;-1.684;2023-02-02T01:43:59;9.00;65.80
52575;DHT22;38468;48.114;-1.684;2023-02-02T01:45:59;9.00;65.90
52575;DHT22;38468;48.114;-1.684;2023-02-02T01:48:00;9.00;65.80
52575;DHT22;38468;48.114;-1.684;2023-02-02T01:50:02;9.00;65.80
52575;DHT22;38468;48.114;-1.684;2023-02-02T01:52:04;9.00;65.80
52575;DHT22;38468;48.114;-1.684;2023-02-02T01:54:07;9.10;65.80
52575;DHT22;38468;48.114;-1.684;2023-02-02T01:56:11;9.00;65.60
52575;DHT22;38468;48.114;-1.684;2023-02-02T01:58:18;9.00;65.70
52575;DHT22;38468;48.114;-1.684;2023-02-02T02:00:22;9.00;65.70
52575;DHT22;38468;48.114;-1.684;2023-02-02T02:02:26;9.00;65.70
52575;DHT22;38468;48.114;-1.684;2023-02-02T02:04:30;9.00;65.70
52575;DHT22;38468;48.114;-1.684;2023-02-02T02:06:31;9.00;65.80
52575;DHT22;38468;48.114;-1.684;2023-02-02T02:10:43;9.00;66.10
52575;DHT22;38468;48.114;-1.684;2023-02-02T02:12:46;9.00;66.00
52575;DHT22;38468;48.114;-1.684;2023-02-02T02:14:49;9.00;66.00
52575;DHT22;38468;48.114;-1.684;2023-02-02T02:22:17;9.00;66.00
52575;DHT22;38468;48.114;-1.684;2023-02-02T02:32:14;8.90;65.70
52575;DHT22;38468;48.114;-1.684;2023-02-02T02:39:12;9.00;65.90
52575;DHT22;38468;48.114;-1.684;2023-02-02T02:41:27;9.00;65.70
52575;DHT22;38468;48.114;-1.684;2023-02-02T02:43:44;9.00;65.70
52575;DHT22;38468;48.114;-1.684;2023-02-02T02:45:48;9.10;65.60
52575;DHT22;38468;48.114;-1.684;2023-02-02T02:47:50;9.10;65.50
52575;DHT22;38468;48.114;-1.684;2023-02-02T02:49:51;9.10;65.30
52575;DHT22;38468;48.114;-1.684;2023-02-02T02:51:53;9.10;65.50
52575;DHT22;38468;48.114;-1.684;2023-02-02T02:53:55;9.10;65.70
52575;DHT22;38468;48.114;-1.684;2023-02-02T02:57:09;9.10;65.70
52575;DHT22;38468;48.114;-1.684;2023-02-02T03:01:13;9.10;65.70
52575;DHT22;38468;48.114;-1.684;2023-02-02T03:09:59;9.10;66.00
52575;DHT22;38468;48.114;-1.684;2023-02-02T03:12:02;9.10;66.00
52575;DHT22;38468;48.114;-1.684;2023-02-02T03:14:03;9.10;66.00
52575;DHT22;38468;48.114;-1.684;2023-02-02T03:16:08;9.10;66.00
52575;DHT22;38468;48.114;-1.684;2023-02-02T03:18:11;9.10;66.20
52575;DHT22;38468;48.114;-1.684;2023-02-02T03:20:13;9.10;66.20
52575;DHT22;38468;48.114;-1.684;2023-02-02T03:22:13;9.20;66.20
52575;DHT22;38468;48.114;-1.684;2023-02-02T03:24:14;9.20;66.20
52575;DHT22;38468;48.114;-1.684;2023-02-02T03:26:15;9.20;66.10
52575;DHT22;38468;48.114;-1.684;2023-02-02T03:28:16;9.20;66.20
52575;DHT22;38468;48.114;-1.684;2023-02-02T03:30:17;9.20;66.00
52575;DHT22;38468;48.114;-1.684;2023-02-02T03:32:18;9.20;65.70
52575;DHT22;38468;48.114;-1.684;2023-02-02T03:34:18;9.20;65.50
52575;DHT22;38468;48.114;-1.684;2023-02-02T03:36:19;9.20;65.30
52575;DHT22;38468;48.114;-1.684;2023-02-02T03:38:20;9.10;65.30
52575;DHT22;38468;48.114;-1.684;2023-02-02T03:40:20;9.10;65.70
52575;DHT22;38468;48.114;-1.684;2023-02-02T03:42:21;9.10;65.60
52575;DHT22;38468;48.114;-1.684;2023-02-02T03:44:22;9.20;65.40
52575;DHT22;38468;48.114;-1.684;2023-02-02T03:46:23;9.10;65.20
52575;DHT22;38468;48.114;-1.684;2023-02-02T03:48:24;9.00;65.20
52575;DHT22;38468;48.114;-1.684;2023-02-02T03:50:25;9.00;65.40
52575;DHT22;38468;48.114;-1.684;2023-02-02T03:52:25;9.00;65.40
52575;DHT22;38468;48.114;-1.684;2023-02-02T03:54:26;9.00;65.40
52575;DHT22;38468;48.114;-1.684;2023-02-02T03:56:26;9.00;65.40
52575;DHT22;38468;48.114;-1.684;2023-02-02T03:58:27;9.00;65.60
52575;DHT22;38468;48.114;-1.684;2023-02-02T04:00:28;9.00;65.70
52575;DHT22;38468;48.114;-1.684;2023-02-02T04:02:28;9.00;65.70
52575;DHT22;38468;48.114;-1.684;2023-02-02T04:04:29;9.00;65.70
52575;DHT22;38468;48.114;-1.684;2023-02-02T04:06:30;9.00;65.70
52575;DHT22;38468;48.114;-1.684;2023-02-02T04:08:31;8.90;65.70
52575;DHT22;38468;48.114;-1.684;2023-02-02T04:10:31;8.90;65.90
52575;DHT22;38468;48.114;-1.684;2023-02-02T04:12:32;8.90;65.80
52575;DHT22;38468;48.114;-1.684;2023-02-02T04:14:33;8.70;66.00
52575;DHT22;38468;48.114;-1.684;2023-02-02T04:16:33;8.70;66.40
52575;DHT22;38468;48.114;-1.684;2023-02-02T04:18:37;8.70;66.40
52575;DHT22;38468;48.114;-1.684;2023-02-02T04:20:37;8.70;66.50
52575;DHT22;38468;48.114;-1.684;2023-02-02T04:22:38;8.70;66.60
52575;DHT22;38468;48.114;-1.684;2023-02-02T04:24:39;8.80;66.40
52575;DHT22;38468;48.114;-1.684;2023-02-02T04:26:40;8.90;66.30
52575;DHT22;38468;48.114;-1.684;2023-02-02T04:28:41;8.80;66.30
52575;DHT22;38468;48.114;-1.684;2023-02-02T04:30:41;8.90;66.30
52575;DHT22;38468;48.114;-1.684;2023-02-02T04:32:42;8.90;66.30
52575;DHT22;38468;48.114;-1.684;2023-02-02T04:34:43;8.90;66.40
52575;DHT22;38468;48.114;-1.684;2023-02-02T04:36:44;8.90;66.40
52575;DHT22;38468;48.114;-1.684;2023-02-02T04:38:48;8.90;66.40
52575;DHT22;38468;48.114;-1.684;2023-02-02T04:40:49;9.00;66.40
52575;DHT22;38468;48.114;-1.684;2023-02-02T04:42:50;8.90;66.40
52575;DHT22;38468;48.114;-1.684;2023-02-02T04:44:50;8.90;66.20
52575;DHT22;38468;48.114;-1.684;2023-02-02T04:46:51;8.90;66.10
52575;DHT22;38468;48.114;-1.684;2023-02-02T04:48:52;8.80;66.30
52575;DHT22;38468;48.114;-1.684;2023-02-02T04:51:00;8.90;66.30
52575;DHT22;38468;48.114;-1.684;2023-02-02T04:53:00;8.80;66.10
52575;DHT22;38468;48.114;-1.684;2023-02-02T04:55:02;8.80;66.30
52575;DHT22;38468;48.114;-1.684;2023-02-02T04:57:02;8.80;66.30
52575;DHT22;38468;48.114;-1.684;2023-02-02T04:59:03;8.70;66.40
52575;DHT22;38468;48.114;-1.684;2023-02-02T05:01:18;8.70;66.40
52575;DHT22;38468;48.114;-1.684;2023-02-02T05:03:20;8.70;66.50
52575;DHT22;38468;48.114;-1.684;2023-02-02T05:05:20;8.70;66.40
52575;DHT22;38468;48.114;-1.684;2023-02-02T05:07:21;8.70;66.50
52575;DHT22;38468;48.114;-1.684;2023-02-02T05:09:21;8.70;66.40
52575;DHT22;38468;48.114;-1.684;2023-02-02T05:11:22;8.70;66.60
52575;DHT22;38468;48.114;-1.684;2023-02-02T05:13:23;8.80;66.60
52575;DHT22;38468;48.114;-1.684;2023-02-02T05:15:24;8.80;66.50
52575;DHT22;38468;48.114;-1.684;2023-02-02T05:17:25;8.80;66.60
52575;DHT22;38468;48.114;-1.684;2023-02-02T05:19:26;8.80;66.50
52575;DHT22;38468;48.114;-1.684;2023-02-02T05:21:27;8.90;66.50
52575;DHT22;38468;48.114;-1.684;2023-02-02T05:23:28;8.90;66.50
52575;DHT22;38468;48.114;-1.684;2023-02-02T05:25:29;8.90;66.30
52575;DHT22;38468;48.114;-1.684;2023-02-02T05:27:30;8.90;66.40
52575;DHT22;38468;48.114;-1.684;2023-02-02T05:29:30;8.90;66.30
52575;DHT22;38468;48.114;-1.684;2023-02-02T05:31:32;8.80;66.50
52575;DHT22;38468;48.114;-1.684;2023-02-02T05:33:32;8.80;66.60
52575;DHT22;38468;48.114;-1.684;2023-02-02T05:35:33;8.80;66.60
52575;DHT22;38468;48.114;-1.684;2023-02-02T05:37:33;8.70;66.50
52575;DHT22;38468;48.114;-1.684;2023-02-02T05:39:34;8.60;66.70
52575;DHT22;38468;48.114;-1.684;2023-02-02T05:41:34;8.60;66.60
52575;DHT22;38468;48.114;-1.684;2023-02-02T05:43:35;8.60;66.70
52575;DHT22;38468;48.114;-1.684;2023-02-02T05:45:36;8.60;66.80
52575;DHT22;38468;48.114;-1.684;2023-02-02T05:47:37;8.60;66.90
52575;DHT22;38468;48.114;-1.684;2023-02-02T05:49:37;8.60;66.90
52575;DHT22;38468;48.114;-1.684;2023-02-02T05:51:45;8.60;67.00
52575;DHT22;38468;48.114;-1.684;2023-02-02T05:53:47;8.70;66.80
52575;DHT22;38468;48.114;-1.684;2023-02-02T05:55:47;8.70;66.70
52575;DHT22;38468;48.114;-1.684;2023-02-02T05:57:48;8.70;66.70
52575;DHT22;38468;48.114;-1.684;2023-02-02T05:59:49;8.70;66.50
52575;DHT22;38468;48.114;-1.684;2023-02-02T06:01:49;8.80;66.40
52575;DHT22;38468;48.114;-1.684;2023-02-02T06:03:50;8.80;66.30
52575;DHT22;38468;48.114;-1.684;2023-02-02T06:05:50;8.70;66.30
52575;DHT22;38468;48.114;-1.684;2023-02-02T06:07:51;8.80;66.40
52575;DHT22;38468;48.114;-1.684;2023-02-02T06:09:51;8.80;66.30
52575;DHT22;38468;48.114;-1.684;2023-02-02T06:11:52;8.80;66.50
52575;DHT22;38468;48.114;-1.684;2023-02-02T06:13:53;8.90;66.60
52575;DHT22;38468;48.114;-1.684;2023-02-02T06:15:53;8.90;66.70
52575;DHT22;38468;48.114;-1.684;2023-02-02T06:17:54;8.90;66.80
52575;DHT22;38468;48.114;-1.684;2023-02-02T06:20:00;8.90;66.60
52575;DHT22;38468;48.114;-1.684;2023-02-02T06:22:04;8.90;66.60
52575;DHT22;38468;48.114;-1.684;2023-02-02T06:24:05;8.80;66.70
52575;DHT22;38468;48.114;-1.684;2023-02-02T06:26:07;8.70;66.80
52575;DHT22;38468;48.114;-1.684;2023-02-02T06:28:07;8.70;66.90
52575;DHT22;38468;48.114;-1.684;2023-02-02T06:30:09;8.70;66.90
52575;DHT22;38468;48.114;-1.684;2023-02-02T06:32:10;8.80;67.10
52575;DHT22;38468;48.114;-1.684;2023-02-02T06:34:11;8.80;67.10
52575;DHT22;38468;48.114;-1.684;2023-02-02T06:36:14;8.80;67.20
52575;DHT22;38468;48.114;-1.684;2023-02-02T06:38:15;8.80;67.30
52575;DHT22;38468;48.114;-1.684;2023-02-02T06:40:16;8.90;67.50
52575;DHT22;38468;48.114;-1.684;2023-02-02T06:42:17;8.90;67.20
52575;DHT22;38468;48.114;-1.684;2023-02-02T06:44:17;8.70;67.10
52575;DHT22;38468;48.114;-1.684;2023-02-02T06:46:20;8.80;67.20
52575;DHT22;38468;48.114;-1.684;2023-02-02T06:48:20;8.90;67.20
52575;DHT22;38468;48.114;-1.684;2023-02-02T06:50:21;8.90;67.30
52575;DHT22;38468;48.114;-1.684;2023-02-02T06:52:22;8.90;67.00
52575;DHT22;38468;48.114;-1.684;2023-02-02T06:54:22;8.90;67.00
52575;DHT22;38468;48.114;-1.684;2023-02-02T06:56:23;9.00;66.90
52575;DHT22;38468;48.114;-1.684;2023-02-02T06:58:24;8.90;66.90
52575;DHT22;38468;48.114;-1.684;2023-02-02T07:00:26;8.90;66.80
52575;DHT22;38468;48.114;-1.684;2023-02-02T07:02:27;8.90;66.80
52575;DHT22;38468;48.114;-1.684;2023-02-02T07:04:28;8.90;66.70
52575;DHT22;38468;48.114;-1.684;2023-02-02T07:06:28;8.90;66.90
52575;DHT22;38468;48.114;-1.684;2023-02-02T07:08:29;8.80;66.80
52575;DHT22;38468;48.114;-1.684;2023-02-02T07:10:30;8.70;66.80
52575;DHT22;38468;48.114;-1.684;2023-02-02T07:12:30;8.70;66.80
52575;DHT22;38468;48.114;-1.684;2023-02-02T07:14:31;8.70;66.90
52575;DHT22;38468;48.114;-1.684;2023-02-02T07:16:31;8.80;67.30
52575;DHT22;38468;48.114;-1.684;2023-02-02T07:18:32;8.80;67.20
52575;DHT22;38468;48.114;-1.684;2023-02-02T07:20:33;8.90;67.20
52575;DHT22;38468;48.114;-1.684;2023-02-02T07:22:34;8.90;67.20
52575;DHT22;38468;48.114;-1.684;2023-02-02T07:24:37;9.00;67.10
52575;DHT22;38468;48.114;-1.684;2023-02-02T07:26:38;9.00;66.90
52575;DHT22;38468;48.114;-1.684;2023-02-02T07:28:39;9.00;66.70
52575;DHT22;38468;48.114;-1.684;2023-02-02T07:30:39;9.00;66.80
52575;DHT22;38468;48.114;-1.684;2023-02-02T07:32:48;9.00;66.70
52575;DHT22;38468;48.114;-1.684;2023-02-02T07:34:49;9.00;66.70
52575;DHT22;38468;48.114;-1.684;2023-02-02T07:36:49;9.00;66.60
52575;DHT22;38468;48.114;-1.684;2023-02-02T07:38:52;9.00;66.50
52575;DHT22;38468;48.114;-1.684;2023-02-02T07:40:59;8.90;66.40
52575;DHT22;38468;48.114;-1.684;2023-02-02T07:43:00;8.90;66.60
52575;DHT22;38468;48.114;-1.684;2023-02-02T07:45:01;8.90;66.40
52575;DHT22;38468;48.114;-1.684;2023-02-02T07:47:02;9.00;66.40
52575;DHT22;38468;48.114;-1.684;2023-02-02T07:49:03;8.90;66.60
52575;DHT22;38468;48.114;-1.684;2023-02-02T07:51:07;8.90;66.40
52575;DHT22;38468;48.114;-1.684;2023-02-02T07:53:08;8.80;66.80
52575;DHT22;38468;48.114;-1.684;2023-02-02T07:55:08;8.80;67.00
52575;DHT22;38468;48.114;-1.684;2023-02-02T07:57:11;8.80;66.80
52575;DHT22;38468;48.114;-1.684;2023-02-02T07:59:13;8.80;66.90
52575;DHT22;38468;48.114;-1.684;2023-02-02T08:01:15;8.80;66.80
52575;DHT22;38468;48.114;-1.684;2023-02-02T08:03:16;8.70;66.90
52575;DHT22;38468;48.114;-1.684;2023-02-02T08:05:16;8.80;66.90
52575;DHT22;38468;48.114;-1.684;2023-02-02T08:07:17;8.70;66.90
52575;DHT22;38468;48.114;-1.684;2023-02-02T08:09:20;8.80;66.80
52575;DHT22;38468;48.114;-1.684;2023-02-02T08:11:22;8.90;67.00
52575;DHT22;38468;48.114;-1.684;2023-02-02T08:13:23;8.90;66.50
52575;DHT22;38468;48.114;-1.684;2023-02-02T08:15:23;8.90;66.60
52575;DHT22;38468;48.114;-1.684;2023-02-02T08:17:24;8.80;66.50
52575;DHT22;38468;48.114;-1.684;2023-02-02T08:19:24;8.70;66.70
52575;DHT22;38468;48.114;-1.684;2023-02-02T08:21:25;8.80;66.80
52575;DHT22;38468;48.114;-1.684;2023-02-02T08:23:27;8.70;66.70
52575;DHT22;38468;48.114;-1.684;2023-02-02T08:25:27;8.70;66.80
52575;DHT22;38468;48.114;-1.684;2023-02-02T08:27:28;8.70;66.80
52575;DHT22;38468;48.114;-1.684;2023-02-02T08:29:29;8.80;67.00
52575;DHT22;38468;48.114;-1.684;2023-02-02T08:31:32;8.90;67.00
52575;DHT22;38468;48.114;-1.684;2023-02-02T08:33:33;8.90;66.70
52575;DHT22;38468;48.114;-1.684;2023-02-02T08:35:33;8.90;66.70
52575;DHT22;38468;48.114;-1.684;2023-02-02T08:37:34;8.90;66.60
52575;DHT22;38468;48.114;-1.684;2023-02-02T08:39:34;8.90;66.90
52575;DHT22;38468;48.114;-1.684;2023-02-02T08:41:35;9.00;66.70
52575;DHT22;38468;48.114;-1.684;2023-02-02T08:43:37;9.00;66.30
52575;DHT22;38468;48.114;-1.684;2023-02-02T08:45:41;8.90;66.30
52575;DHT22;38468;48.114;-1.684;2023-02-02T08:47:42;9.00;66.40
52575;DHT22;38468;48.114;-1.684;2023-02-02T08:49:43;9.00;66.30
52575;DHT22;38468;48.114;-1.684;2023-02-02T08:51:44;9.00;66.50
52575;DHT22;38468;48.114;-1.684;2023-02-02T08:53:45;9.10;66.30
52575;DHT22;38468;48.114;-1.684;2023-02-02T08:55:46;9.00;66.40
52575;DHT22;38468;48.114;-1.684;2023-02-02T08:57:47;9.00;66.40
52575;DHT22;38468;48.114;-1.684;2023-02-02T08:59:47;8.90;66.60
52575;DHT22;38468;48.114;-1.684;2023-02-02T09:01:48;8.90;66.60
52575;DHT22;38468;48.114;-1.684;2023-02-02T09:03:53;8.90;66.60
52575;DHT22;38468;48.114;-1.684;2023-02-02T09:05:54;8.90;66.60
52575;DHT22;38468;48.114;-1.684;2023-02-02T09:07:55;8.90;66.60
52575;DHT22;38468;48.114;-1.684;2023-02-02T09:09:56;8.90;66.90
52575;DHT22;38468;48.114;-1.684;2023-02-02T09:11:57;8.90;67.00
52575;DHT22;38468;48.114;-1.684;2023-02-02T09:13:58;8.90;67.00
52575;DHT22;38468;48.114;-1.684;2023-02-02T09:16:02;8.90;67.00
52575;DHT22;38468;48.114;-1.684;2023-02-02T09:18:03;8.90;66.80
52575;DHT22;38468;48.114;-1.684;2023-02-02T09:20:05;8.90;66.90
52575;DHT22;38468;48.114;-1.684;2023-02-02T09:22:06;8.90;66.90
52575;DHT22;38468;48.114;-1.684;2023-02-02T09:24:08;8.90;66.70
52575;DHT22;38468;48.114;-1.684;2023-02-02T09:28:16;9.00;66.80
52575;DHT22;38468;48.114;-1.684;2023-02-02T09:30:17;9.00;66.60
52575;DHT22;38468;48.114;-1.684;2023-02-02T09:32:18;9.00;66.60
52575;DHT22;38468;48.114;-1.684;2023-02-02T09:34:19;9.10;66.60
52575;DHT22;38468;48.114;-1.684;2023-02-02T09:36:22;9.10;66.70
52575;DHT22;38468;48.114;-1.684;2023-02-02T09:38:22;9.10;67.00
52575;DHT22;38468;48.114;-1.684;2023-02-02T09:40:24;9.10;67.00
52575;DHT22;38468;48.114;-1.684;2023-02-02T09:45:03;9.20;66.30
52575;DHT22;38468;48.114;-1.684;2023-02-02T09:49:22;9.30;66.20
52575;DHT22;38468;48.114;-1.684;2023-02-02T09:51:27;9.30;66.30
52575;DHT22;38468;48.114;-1.684;2023-02-02T09:53:57;9.30;66.30
52575;DHT22;38468;48.114;-1.684;2023-02-02T09:55:59;9.30;66.20
52575;DHT22;38468;48.114;-1.684;2023-02-02T09:58:27;9.30;66.60
52575;DHT22;38468;48.114;-1.684;2023-02-02T10:00:37;9.30;66.20
52575;DHT22;38468;48.114;-1.684;2023-02-02T10:02:41;9.30;66.20
52575;DHT22;38468;48.114;-1.684;2023-02-02T10:04:48;9.40;66.20
52575;DHT22;38468;48.114;-1.684;2023-02-02T10:06:52;9.40;66.10
52575;DHT22;38468;48.114;-1.684;2023-02-02T10:08:59;9.40;66.30
52575;DHT22;38468;48.114;-1.684;2023-02-02T10:11:15;9.50;66.50
52575;DHT22;38468;48.114;-1.684;2023-02-02T10:13:38;9.50;66.40
52575;DHT22;38468;48.114;-1.684;2023-02-02T10:15:54;9.50;66.20
52575;DHT22;38468;48.114;-1.684;2023-02-02T10:18:13;9.60;65.90
52575;DHT22;38468;48.114;-1.684;2023-02-02T10:22:45;9.50;65.60
52575;DHT22;38468;48.114;-1.684;2023-02-02T10:24:46;9.70;65.50
52575;DHT22;38468;48.114;-1.684;2023-02-02T10:26:53;9.70;65.20
52575;DHT22;38468;48.114;-1.684;2023-02-02T10:30:59;9.80;65.10
52575;DHT22;38468;48.114;-1.684;2023-02-02T10:35:48;9.80;64.80
52575;DHT22;38468;48.114;-1.684;2023-02-02T10:42:41;9.90;64.90
52575;DHT22;38468;48.114;-1.684;2023-02-02T10:46:51;9.90;64.60
52575;DHT22;38468;48.114;-1.684;2023-02-02T10:51:19;10.00;64.20
52575;DHT22;38468;48.114;-1.684;2023-02-02T10:53:22;10.00;64.50
52575;DHT22;38468;48.114;-1.684;2023-02-02T10:55:27;10.10;64.60
52575;DHT22;38468;48.114;-1.684;2023-02-02T11:02:18;10.20;64.00
52575;DHT22;38468;48.114;-1.684;2023-02-02T11:04:20;10.20;63.80
52575;DHT22;38468;48.114;-1.684;2023-02-02T11:06:40;10.20;63.90
52575;DHT22;38468;48.114;-1.684;2023-02-02T11:08:51;10.20;63.70
52575;DHT22;38468;48.114;-1.684;2023-02-02T11:10:57;10.30;64.00
52575;DHT22;38468;48.114;-1.684;2023-02-02T11:12:59;10.30;63.90
52575;DHT22;38468;48.114;-1.684;2023-02-02T11:17:05;10.40;63.90
52575;DHT22;38468;48.114;-1.684;2023-02-02T11:19:33;10.50;63.60
52575;DHT22;38468;48.114;-1.684;2023-02-02T11:21:34;10.50;63.30
52575;DHT22;38468;48.114;-1.684;2023-02-02T11:23:37;10.50;63.40
52575;DHT22;38468;48.114;-1.684;2023-02-02T11:25:38;10.60;63.00
52575;DHT22;38468;48.114;-1.684;2023-02-02T11:27:41;10.60;63.30
52575;DHT22;38468;48.114;-1.684;2023-02-02T11:29:46;10.60;62.80
52575;DHT22;38468;48.114;-1.684;2023-02-02T11:31:47;10.60;62.70
52575;DHT22;38468;48.114;-1.684;2023-02-02T11:33:49;10.70;63.10
52575;DHT22;38468;48.114;-1.684;2023-02-02T11:35:58;10.70;62.70
52575;DHT22;38468;48.114;-1.684;2023-02-02T11:38:13;10.70;62.60
52575;DHT22;38468;48.114;-1.684;2023-02-02T11:40:33;10.70;62.60
52575;DHT22;38468;48.114;-1.684;2023-02-02T11:42:34;10.70;63.10
52575;DHT22;38468;48.114;-1.684;2023-02-02T11:44:37;10.70;62.50
52575;DHT22;38468;48.114;-1.684;2023-02-02T11:46:39;10.80;62.60
52575;DHT22;38468;48.114;-1.684;2023-02-02T11:48:52;10.70;61.90
52575;DHT22;38468;48.114;-1.684;2023-02-02T11:50:58;10.70;62.60
52575;DHT22;38468;48.114;-1.684;2023-02-02T11:52:59;10.80;62.60
52575;DHT22;38468;48.114;-1.684;2023-02-02T11:55:02;10.80;62.10
52575;DHT22;38468;48.114;-1.684;2023-02-02T11:57:09;10.70;61.90
52575;DHT22;38468;48.114;-1.684;2023-02-02T11:59:31;10.80;62.10
52575;DHT22;38468;48.114;-1.684;2023-02-02T12:01:34;10.80;62.40
52575;DHT22;38468;48.114;-1.684;2023-02-02T12:03:39;10.80;62.70
52575;DHT22;38468;48.114;-1.684;2023-02-02T12:05:39;10.80;62.80
52575;DHT22;38468;48.114;-1.684;2023-02-02T12:07:42;10.80;63.00
52575;DHT22;38468;48.114;-1.684;2023-02-02T12:09:44;10.90;63.00
52575;DHT22;38468;48.114;-1.684;2023-02-02T12:11:59;10.90;62.70
52575;DHT22;38468;48.114;-1.684;2023-02-02T12:21:36;11.10;62.90
52575;DHT22;38468;48.114;-1.684;2023-02-02T12:26:33;10.90;61.70
52575;DHT22;38468;48.114;-1.684;2023-02-02T12:28:48;10.90;62.40
52575;DHT22;38468;48.114;-1.684;2023-02-02T12:31:21;10.90;62.40
52575;DHT22;38468;48.114;-1.684;2023-02-02T12:33:50;11.00;62.20
52575;DHT22;38468;48.114;-1.684;2023-02-02T12:41:09;11.20;61.30
52575;DHT22;38468;48.114;-1.684;2023-02-02T12:43:20;11.20;61.30
52575;DHT22;38468;48.114;-1.684;2023-02-02T12:54:43;11.20;59.80
52575;DHT22;38468;48.114;-1.684;2023-02-02T12:56:51;11.10;60.00
52575;DHT22;38468;48.114;-1.684;2023-02-02T12:59:16;11.20;60.60
52575;DHT22;38468;48.114;-1.684;2023-02-02T13:02:01;11.30;60.50
52575;DHT22;38468;48.114;-1.684;2023-02-02T13:04:31;11.30;60.00
52575;DHT22;38468;48.114;-1.684;2023-02-02T13:09:05;11.40;59.30
52575;DHT22;38468;48.114;-1.684;2023-02-02T13:11:12;11.30;60.00
52575;DHT22;38468;48.114;-1.684;2023-02-02T13:13:32;11.30;59.60
52575;DHT22;38468;48.114;-1.684;2023-02-02T13:15:39;11.30;59.80
52575;DHT22;38468;48.114;-1.684;2023-02-02T13:17:50;11.30;59.30
52575;DHT22;38468;48.114;-1.684;2023-02-02T13:19:54;11.20;58.80
52575;DHT22;38468;48.114;-1.684;2023-02-02T13:21:57;11.30;59.60
52575;DHT22;38468;48.114;-1.684;2023-02-02T13:24:02;11.40;58.80
52575;DHT22;38468;48.114;-1.684;2023-02-02T13:26:25;11.40;59.00
52575;DHT22;38468;48.114;-1.684;2023-02-02T13:28:29;11.40;58.80
52575;DHT22;38468;48.114;-1.684;2023-02-02T13:30:35;11.40;58.80
52575;DHT22;38468;48.114;-1.684;2023-02-02T13:32:41;11.40;58.90
52575;DHT22;38468;48.114;-1.684;2023-02-02T13:34:54;11.40;59.10
52575;DHT22;38468;48.114;-1.684;2023-02-02T13:37:01;11.40;59.10
52575;DHT22;38468;48.114;-1.684;2023-02-02T13:39:19;11.30;59.00
52575;DHT22;38468;48.114;-1.684;2023-02-02T13:41:21;11.30;58.90
52575;DHT22;38468;48.114;-1.684;2023-02-02T13:46:28;11.40;59.30
52575;DHT22;38468;48.114;-1.684;2023-02-02T13:50:44;11.20;59.00
52575;DHT22;38468;48.114;-1.684;2023-02-02T13:52:59;11.30;59.00
52575;DHT22;38468;48.114;-1.684;2023-02-02T14:04:27;11.20;59.30
52575;DHT22;38468;48.114;-1.684;2023-02-02T14:06:53;11.20;59.60
52575;DHT22;38468;48.114;-1.684;2023-02-02T14:09:00;11.30;59.60
52575;DHT22;38468;48.114;-1.684;2023-02-02T14:11:04;11.20;59.60
52575;DHT22;38468;48.114;-1.684;2023-02-02T14:15:42;11.20;59.40
52575;DHT22;38468;48.114;-1.684;2023-02-02T14:19:59;11.20;58.50
52575;DHT22;38468;48.114;-1.684;2023-02-02T14:22:01;11.10;58.80
52575;DHT22;38468;48.114;-1.684;2023-02-02T14:26:07;11.10;59.50
52575;DHT22;38468;48.114;-1.684;2023-02-02T14:28:10;11.10;59.30
52575;DHT22;38468;48.114;-1.684;2023-02-02T14:30:24;11.00;59.40
52575;DHT22;38468;48.114;-1.684;2023-02-02T14:36:37;11.30;59.90
52575;DHT22;38468;48.114;-1.684;2023-02-02T14:39:02;11.20;59.90
52575;DHT22;38468;48.114;-1.684;2023-02-02T14:43:47;11.20;59.60
52575;DHT22;38468;48.114;-1.684;2023-02-02T14:48:19;11.20;59.80
52575;DHT22;38468;48.114;-1.684;2023-02-02T14:52:56;11.20;59.80
52575;DHT22;38468;48.114;-1.684;2023-02-02T14:54:59;11.20;59.70
52575;DHT22;38468;48.114;-1.684;2023-02-02T14:57:21;11.30;59.20
52575;DHT22;38468;48.114;-1.684;2023-02-02T14:59:37;11.10;58.90